createdAt,value
2018-11-25T00:00:10.599Z,6.70
2018-11-25T00:02:39.510Z,6.63
2018-11-25T00:05:08.905Z,6.57
2018-11-25T00:07:37.538Z,6.60
2018-11-25T00:10:06.728Z,6.59
2018-11-25T00:12:35.439Z,6.60
2018-11-25T00:15:04.406Z,6.59
2018-11-25T00:17:32.971Z,6.57
2018-11-25T00:20:01.515Z,6.60
2018-11-25T00:22:30.087Z,6.58
2018-11-25T00:24:58.685Z,6.60
2018-11-25T00:27:27.217Z,6.61
2018-11-25T00:29:55.782Z,6.59
2018-11-25T00:32:24.401Z,6.60
2018-11-25T00:34:52.929Z,6.67
2018-11-25T00:37:21.467Z,6.67
2018-11-25T00:39:50.082Z,6.65
2018-11-25T00:42:18.607Z,6.66
2018-11-25T00:44:47.114Z,6.65
2018-11-25T00:47:15.962Z,6.67
2018-11-25T00:49:44.584Z,6.63
2018-11-25T00:52:13.127Z,6.55
2018-11-25T00:54:41.796Z,6.46
2018-11-25T00:57:10.951Z,6.42
2018-11-25T00:59:39.481Z,6.36
2018-11-25T01:02:08.441Z,6.33
2018-11-25T01:04:36.999Z,6.24
2018-11-25T01:07:05.774Z,6.20
2018-11-25T01:09:34.413Z,6.16
2018-11-25T01:12:03.081Z,6.15
2018-11-25T01:14:34.629Z,6.16
2018-11-25T01:17:03.596Z,6.15
2018-11-25T01:19:32.145Z,6.14
2018-11-25T01:22:00.688Z,6.12
2018-11-25T01:24:29.298Z,6.17
2018-11-25T01:26:57.854Z,6.26
2018-11-25T01:29:26.405Z,6.29
2018-11-25T01:31:55.082Z,6.24
2018-11-25T01:34:23.636Z,6.21
2018-11-25T01:36:52.165Z,6.18
2018-11-25T01:39:20.749Z,6.24
2018-11-25T01:41:49.279Z,6.27
2018-11-25T01:44:17.858Z,6.22
2018-11-25T01:46:46.532Z,6.19
2018-11-25T01:49:15.086Z,6.17
2018-11-25T01:51:43.633Z,6.12
2018-11-25T01:54:12.220Z,6.08
2018-11-25T01:56:40.775Z,6.04
2018-11-25T01:59:09.330Z,6.11
2018-11-25T02:01:39.318Z,6.10
2018-11-25T02:04:08.192Z,6.03
2018-11-25T02:06:36.723Z,6.05
2018-11-25T02:09:08.492Z,5.99
2018-11-25T02:11:37.547Z,5.91
2018-11-25T02:14:06.504Z,5.66
2018-11-25T02:16:35.087Z,5.45
2018-11-25T02:19:03.622Z,5.30
2018-11-25T02:21:32.146Z,5.17
2018-11-25T02:24:01.029Z,5.06
2018-11-25T02:26:29.587Z,4.96
2018-11-25T02:28:58.149Z,4.88
2018-11-25T02:31:26.752Z,4.84
2018-11-25T02:33:55.282Z,4.83
2018-11-25T02:36:23.814Z,4.93
2018-11-25T02:38:52.400Z,5.01
2018-11-25T02:41:20.967Z,5.06
2018-11-25T02:43:49.534Z,5.31
2018-11-25T02:46:18.201Z,5.54
2018-11-25T02:48:46.751Z,5.55
2018-11-25T02:51:15.310Z,5.57
2018-11-25T02:53:43.866Z,5.61
2018-11-25T02:56:12.398Z,5.78
2018-11-25T02:58:40.920Z,5.83
2018-11-25T03:01:09.507Z,5.82
2018-11-25T03:03:38.026Z,5.79
2018-11-25T03:06:06.900Z,5.83
2018-11-25T03:08:35.475Z,5.88
2018-11-25T03:11:04.007Z,5.89
2018-11-25T03:13:32.554Z,5.98
2018-11-25T03:16:01.235Z,5.93
2018-11-25T03:18:29.785Z,5.89
2018-11-25T03:20:58.414Z,5.88
2018-11-25T03:23:26.996Z,5.86
2018-11-25T03:25:55.802Z,5.87
2018-11-25T03:28:24.355Z,5.88
2018-11-25T03:30:52.959Z,6.00
2018-11-25T03:33:21.501Z,5.98
2018-11-25T03:35:50.146Z,5.96
2018-11-25T03:38:18.741Z,6.11
2018-11-25T03:40:47.271Z,6.27
2018-11-25T03:43:15.799Z,6.32
2018-11-25T03:45:44.377Z,6.45
2018-11-25T03:48:12.906Z,6.49
2018-11-25T03:50:41.470Z,6.50
2018-11-25T03:53:10.046Z,6.59
2018-11-25T03:55:38.557Z,6.59
2018-11-25T03:58:07.323Z,6.61
2018-11-25T04:00:35.896Z,6.63
2018-11-25T04:03:04.434Z,6.57
2018-11-25T04:05:32.976Z,6.64
2018-11-25T04:08:01.574Z,6.71
2018-11-25T04:10:30.129Z,6.74
2018-11-25T04:12:58.676Z,6.68
2018-11-25T04:15:27.244Z,6.52
2018-11-25T04:17:55.877Z,6.60
2018-11-25T04:20:24.408Z,6.51
2018-11-25T04:22:52.978Z,6.56
2018-11-25T04:25:21.522Z,6.51
2018-11-25T04:27:50.053Z,6.57
2018-11-25T04:30:19.955Z,6.61
2018-11-25T04:32:51.281Z,6.57
2018-11-25T04:35:20.226Z,6.60
2018-11-25T04:37:48.762Z,6.54
2018-11-25T04:40:18.092Z,6.52
2018-11-25T04:42:47.005Z,6.55
2018-11-25T04:45:16.793Z,6.43
2018-11-25T04:47:45.910Z,6.42
2018-11-25T04:50:16.571Z,6.50
2018-11-25T04:52:45.157Z,6.56
2018-11-25T04:55:14.075Z,6.57
2018-11-25T04:57:46.809Z,6.45
2018-11-25T05:00:15.363Z,6.36
2018-11-25T05:02:43.911Z,6.28
2018-11-25T05:05:13.788Z,6.40
2018-11-25T05:07:42.320Z,6.56
2018-11-25T05:10:12.143Z,6.57
2018-11-25T05:12:40.714Z,6.54
2018-11-25T05:15:11.122Z,6.37
2018-11-25T05:17:39.641Z,6.48
2018-11-25T05:20:09.965Z,6.51
2018-11-25T05:22:38.499Z,6.44
2018-11-25T05:25:10.294Z,6.34
2018-11-25T05:27:38.819Z,6.18
2018-11-25T05:30:10.043Z,6.11
2018-11-25T05:32:38.623Z,6.24
2018-11-25T05:35:08.955Z,6.20
2018-11-25T05:37:37.470Z,6.18
2018-11-25T05:40:08.204Z,6.12
2018-11-25T05:42:36.733Z,6.05
2018-11-25T05:45:07.014Z,6.24
2018-11-25T05:47:35.588Z,6.28
2018-11-25T05:50:04.590Z,6.38
2018-11-25T05:52:33.181Z,6.34
2018-11-25T05:55:01.763Z,6.20
2018-11-25T05:57:30.272Z,6.12
2018-11-25T05:59:58.810Z,5.92
2018-11-25T06:02:27.385Z,5.73
2018-11-25T06:04:55.943Z,5.58
2018-11-25T06:07:24.575Z,5.49
2018-11-25T06:09:53.148Z,5.40
2018-11-25T06:12:21.678Z,5.37
2018-11-25T06:14:50.213Z,5.35
2018-11-25T06:17:18.796Z,5.45
2018-11-25T06:19:47.349Z,5.51
2018-11-25T06:22:16.027Z,5.68
2018-11-25T06:24:44.603Z,5.73
2018-11-25T06:27:13.126Z,5.72
2018-11-25T06:29:41.654Z,5.73
2018-11-25T06:32:10.247Z,5.72
2018-11-25T06:34:38.833Z,5.66
2018-11-25T06:37:07.374Z,5.63
2018-11-25T06:39:35.926Z,5.57
2018-11-25T06:42:04.814Z,5.53
2018-11-25T06:44:33.346Z,5.62
2018-11-25T06:47:01.896Z,5.61
2018-11-25T06:49:30.470Z,5.57
2018-11-25T06:51:59.004Z,5.55
2018-11-25T06:54:27.570Z,5.54
2018-11-25T06:56:56.865Z,5.49
2018-11-25T06:59:24.718Z,5.61
2018-11-25T07:01:53.608Z,5.65
2018-11-25T07:04:22.311Z,5.78
2018-11-25T07:06:50.977Z,5.96
2018-11-25T07:09:19.558Z,6.03
2018-11-25T07:11:48.145Z,6.13
2018-11-25T07:14:17.202Z,6.20
2018-11-25T07:16:45.869Z,6.31
2018-11-25T07:19:14.398Z,6.43
2018-11-25T07:21:42.934Z,6.60
2018-11-25T07:24:11.607Z,6.74
2018-11-25T07:26:40.154Z,7.06
2018-11-25T07:29:09.119Z,7.45
2018-11-25T07:31:37.787Z,7.64
2018-11-25T07:34:06.504Z,7.88
2018-11-25T07:36:35.077Z,8.08
2018-11-25T07:39:03.872Z,7.99
2018-11-25T07:41:32.416Z,8.10
2018-11-25T07:44:01.063Z,8.49
2018-11-25T07:46:29.643Z,8.87
2018-11-25T07:48:58.225Z,8.92
2018-11-25T07:51:26.733Z,8.85
2018-11-25T07:53:55.330Z,8.68
2018-11-25T07:56:23.910Z,8.57
2018-11-25T07:58:52.966Z,8.41
2018-11-25T08:01:22.919Z,8.27
2018-11-25T08:03:51.922Z,8.10
2018-11-25T08:06:20.468Z,7.98
2018-11-25T08:08:49.618Z,8.04
2018-11-25T08:11:18.189Z,8.08
2018-11-25T08:13:46.723Z,8.10
2018-11-25T08:16:15.286Z,8.17
2018-11-25T08:18:44.586Z,8.25
2018-11-25T08:21:13.115Z,8.32
2018-11-25T08:23:41.758Z,8.38
2018-11-25T08:26:10.878Z,8.49
2018-11-25T08:28:40.410Z,8.62
2018-11-25T08:31:09.100Z,8.71
2018-11-25T08:33:37.670Z,8.83
2018-11-25T08:36:07.055Z,8.87
2018-11-25T08:38:35.682Z,8.84
2018-11-25T08:41:04.219Z,8.89
2018-11-25T08:43:32.790Z,8.96
2018-11-25T08:46:01.386Z,9.10
2018-11-25T08:48:29.912Z,9.17
2018-11-25T08:50:58.495Z,9.24
2018-11-25T08:53:27.102Z,9.24
2018-11-25T08:55:55.640Z,9.18
2018-11-25T08:58:24.162Z,9.17
2018-11-25T09:00:52.716Z,9.15
2018-11-25T09:03:21.302Z,9.16
2018-11-25T09:05:49.956Z,9.12
2018-11-25T09:08:18.808Z,8.99
2018-11-25T09:10:49.234Z,8.75
2018-11-25T09:13:16.746Z,8.65
2018-11-25T09:15:45.411Z,8.51
2018-11-25T09:18:13.942Z,8.56
2018-11-25T09:20:42.577Z,8.61
2018-11-25T09:23:11.476Z,8.63
2018-11-25T09:25:40.218Z,8.64
2018-11-25T09:28:08.847Z,8.74
2018-11-25T09:30:37.405Z,8.75
2018-11-25T09:33:06.003Z,8.68
2018-11-25T09:35:35.370Z,8.71
2018-11-25T09:38:03.951Z,8.82
2018-11-25T09:40:32.883Z,8.95
2018-11-25T09:43:01.503Z,9.12
2018-11-25T09:45:30.345Z,9.28
2018-11-25T09:47:58.869Z,9.32
2018-11-25T09:50:27.395Z,9.28
2018-11-25T09:52:55.985Z,9.35
2018-11-25T09:55:25.453Z,9.48
2018-11-25T09:57:56.286Z,9.57
2018-11-25T10:00:25.965Z,9.63
2018-11-25T10:02:54.600Z,9.68
2018-11-25T10:05:23.194Z,9.86
2018-11-25T10:07:51.731Z,10.07
2018-11-25T10:10:21.274Z,10.04
2018-11-25T10:12:49.970Z,10.08
2018-11-25T10:15:19.706Z,10.20
2018-11-25T10:17:48.342Z,10.29
2018-11-25T10:20:18.962Z,10.30
2018-11-25T10:22:47.495Z,10.37
2018-11-25T10:25:18.046Z,10.30
2018-11-25T10:27:46.666Z,10.19
2018-11-25T10:30:17.238Z,10.14
2018-11-25T10:32:46.593Z,10.04
2018-11-25T10:35:15.155Z,10.03
2018-11-25T10:37:43.776Z,9.94
2018-11-25T10:40:16.259Z,9.85
2018-11-25T10:42:44.832Z,9.79
2018-11-25T10:45:19.450Z,9.69
2018-11-25T10:47:48.137Z,9.64
2018-11-25T10:50:17.664Z,9.57
2018-11-25T10:52:46.311Z,9.60
2018-11-25T10:55:15.924Z,9.64
2018-11-25T10:57:45.269Z,9.61
2018-11-25T11:00:23.863Z,9.55
2018-11-25T11:02:57.803Z,9.43
2018-11-25T11:05:31.494Z,9.55
2018-11-25T11:08:00.021Z,9.72
2018-11-25T11:10:28.573Z,9.66
2018-11-25T11:12:57.172Z,9.61
2018-11-25T11:15:25.774Z,9.61
2018-11-25T11:17:54.345Z,9.58
2018-11-25T11:20:22.905Z,9.71
2018-11-25T11:22:51.522Z,9.62
2018-11-25T11:25:20.345Z,9.64
2018-11-25T11:27:48.909Z,9.56
2018-11-25T11:30:17.913Z,9.55
2018-11-25T11:32:47.780Z,9.78
2018-11-25T11:35:16.354Z,9.76
2018-11-25T11:37:44.912Z,9.78
2018-11-25T11:40:14.735Z,9.78
2018-11-25T11:42:43.298Z,9.81
2018-11-25T11:45:13.767Z,9.75
2018-11-25T11:47:42.938Z,9.74
2018-11-25T11:50:16.659Z,9.76
2018-11-25T11:52:45.207Z,9.70
2018-11-25T11:55:16.135Z,9.82
2018-11-25T11:57:45.507Z,9.83
2018-11-25T12:00:21.439Z,9.82
2018-11-25T12:02:50.292Z,9.79
2018-11-25T12:05:18.829Z,9.67
2018-11-25T12:07:47.434Z,9.80
2018-11-25T12:10:16.762Z,9.88
2018-11-25T12:12:45.414Z,9.87
2018-11-25T12:15:18.382Z,9.75
2018-11-25T12:17:46.917Z,9.79
2018-11-25T12:20:15.445Z,9.78
2018-11-25T12:22:44.130Z,9.77
2018-11-25T12:25:14.624Z,9.75
2018-11-25T12:27:43.147Z,9.62
2018-11-25T12:30:13.163Z,9.47
2018-11-25T12:32:42.399Z,9.39
2018-11-25T12:35:12.111Z,9.57
2018-11-25T12:37:40.691Z,9.70
2018-11-25T12:40:12.834Z,9.77
2018-11-25T12:42:41.879Z,9.76
2018-11-25T12:45:13.642Z,9.75
2018-11-25T12:47:42.255Z,9.65
2018-11-25T12:50:12.902Z,9.46
2018-11-25T12:52:41.508Z,9.42
2018-11-25T12:55:15.947Z,9.58
2018-11-25T12:57:44.569Z,9.73
2018-11-25T13:00:23.395Z,9.77
2018-11-25T13:02:51.936Z,9.65
2018-11-25T13:05:20.471Z,9.69
2018-11-25T13:07:49.155Z,9.74
2018-11-25T13:10:18.161Z,9.67
2018-11-25T13:12:46.721Z,9.63
2018-11-25T13:15:18.547Z,9.76
2018-11-25T13:17:47.526Z,9.78
2018-11-25T13:20:19.061Z,9.73
2018-11-25T13:22:47.681Z,9.71
2018-11-25T13:25:17.297Z,9.64
2018-11-25T13:27:45.970Z,9.61
2018-11-25T13:30:21.852Z,9.62
2018-11-25T13:32:51.728Z,9.47
2018-11-25T13:35:20.385Z,9.52
2018-11-25T13:37:49.328Z,9.35
2018-11-25T13:40:18.120Z,9.31
2018-11-25T13:42:46.700Z,9.26
2018-11-25T13:45:15.235Z,9.34
2018-11-25T13:47:43.817Z,9.28
2018-11-25T13:50:12.831Z,9.28
2018-11-25T13:52:41.398Z,9.20
2018-11-25T13:55:12.262Z,9.30
2018-11-25T13:57:40.867Z,9.17
2018-11-25T14:00:31.895Z,9.03
2018-11-25T14:03:00.648Z,8.97
2018-11-25T14:05:29.168Z,9.06
2018-11-25T14:07:57.773Z,9.01
2018-11-25T14:10:31.007Z,9.02
2018-11-25T14:13:00.373Z,8.91
2018-11-25T14:15:29.699Z,8.91
2018-11-25T14:17:57.534Z,8.89
2018-11-25T14:20:26.132Z,8.86
2018-11-25T14:22:54.665Z,8.75
2018-11-25T14:25:23.827Z,8.46
2018-11-25T14:27:54.572Z,8.28
2018-11-25T14:30:25.060Z,8.16
2018-11-25T14:32:53.719Z,8.10
2018-11-25T14:35:22.353Z,8.03
2018-11-25T14:37:50.959Z,7.95
2018-11-25T14:40:20.994Z,7.76
2018-11-25T14:42:49.629Z,7.59
2018-11-25T14:45:19.319Z,7.44
2018-11-25T14:47:47.860Z,7.28
2018-11-25T14:50:17.746Z,7.32
2018-11-25T14:52:47.649Z,7.35
2018-11-25T14:55:16.922Z,7.45
2018-11-25T14:57:45.519Z,7.44
2018-11-25T15:00:15.830Z,7.35
2018-11-25T15:02:45.692Z,7.15
2018-11-25T15:05:30.139Z,7.06
2018-11-25T15:07:58.702Z,7.02
2018-11-25T15:10:27.286Z,6.93
2018-11-25T15:12:55.851Z,6.89
2018-11-25T15:15:24.382Z,6.79
2018-11-25T15:17:52.942Z,6.75
2018-11-25T15:20:21.593Z,6.69
2018-11-25T15:22:53.833Z,6.59
2018-11-25T15:25:25.590Z,6.40
2018-11-25T15:27:54.256Z,6.23
2018-11-25T15:30:22.818Z,6.06
2018-11-25T15:32:51.393Z,5.93
2018-11-25T15:35:20.122Z,5.79
2018-11-25T15:37:49.765Z,5.67
2018-11-25T15:40:21.658Z,5.68
2018-11-25T15:42:50.190Z,5.76
2018-11-25T15:45:18.766Z,5.71
2018-11-25T15:47:49.311Z,5.79
2018-11-25T15:50:26.506Z,5.93
2018-11-25T15:52:55.359Z,6.01
2018-11-25T15:55:24.084Z,6.06
2018-11-25T15:57:53.002Z,6.06
2018-11-25T16:00:22.684Z,6.05
2018-11-25T16:02:51.278Z,5.98
2018-11-25T16:05:23.314Z,5.82
2018-11-25T16:07:51.893Z,5.61
2018-11-25T16:10:20.456Z,5.44
2018-11-25T16:12:50.480Z,5.36
2018-11-25T16:15:20.337Z,5.34
2018-11-25T16:17:48.904Z,5.46
2018-11-25T16:20:19.693Z,5.43
2018-11-25T16:22:49.755Z,5.33
2018-11-25T16:25:27.291Z,5.17
2018-11-25T16:27:59.222Z,5.26
2018-11-25T16:30:27.840Z,5.25
2018-11-25T16:32:56.401Z,5.21
2018-11-25T16:35:25.070Z,5.10
2018-11-25T16:37:53.733Z,4.88
2018-11-25T16:40:22.298Z,4.90
2018-11-25T16:42:50.865Z,4.83
2018-11-25T16:45:19.807Z,4.70
2018-11-25T16:47:48.339Z,4.70
2018-11-25T16:50:25.070Z,4.68
2018-11-25T16:52:47.106Z,4.60
2018-11-25T16:55:15.970Z,4.52
2018-11-25T16:57:44.982Z,4.42
2018-11-25T17:00:19.483Z,4.39
2018-11-25T17:02:48.087Z,4.36
2018-11-25T17:05:23.022Z,4.29
2018-11-25T17:07:55.674Z,4.21
2018-11-25T17:10:24.672Z,4.43
2018-11-25T17:12:53.424Z,4.49
2018-11-25T17:15:23.366Z,4.52
2018-11-25T17:17:51.968Z,4.39
2018-11-25T17:20:20.530Z,4.25
2018-11-25T17:22:49.092Z,4.20
2018-11-25T17:25:18.179Z,4.13
2018-11-25T17:27:47.430Z,4.17
2018-11-25T17:30:17.174Z,4.13
2018-11-25T17:32:46.348Z,4.16
2018-11-25T17:35:18.449Z,4.23
2018-11-25T17:37:47.199Z,4.26
2018-11-25T17:40:15.756Z,4.34
2018-11-25T17:42:44.298Z,4.40
2018-11-25T17:45:13.919Z,4.48
2018-11-25T17:47:43.332Z,4.52
2018-11-25T17:50:21.287Z,4.64
2018-11-25T17:52:50.354Z,4.62
2018-11-25T17:55:19.943Z,4.71
2018-11-25T17:57:48.564Z,4.76
2018-11-25T18:00:20.406Z,4.85
2018-11-25T18:02:49.110Z,4.92
2018-11-25T18:05:17.728Z,4.92
2018-11-25T18:07:46.320Z,4.93
2018-11-25T18:10:15.015Z,4.95
2018-11-25T18:12:43.615Z,5.03
2018-11-25T18:15:14.823Z,5.05
2018-11-25T18:17:45.962Z,5.06
2018-11-25T18:20:14.564Z,5.09
2018-11-25T18:22:46.562Z,5.15
2018-11-25T18:25:15.135Z,5.17
2018-11-25T18:27:44.086Z,5.23
2018-11-25T18:30:15.048Z,5.29
2018-11-25T18:32:44.375Z,5.32
2018-11-25T18:35:13.473Z,5.37
2018-11-25T18:37:42.333Z,5.41
2018-11-25T18:40:12.618Z,5.48
2018-11-25T18:42:42.622Z,5.48
2018-11-25T18:45:13.141Z,5.58
2018-11-25T18:47:42.912Z,5.62
2018-11-25T18:50:13.592Z,5.63
2018-11-25T18:52:43.393Z,5.72
2018-11-25T18:55:11.187Z,5.77
2018-11-25T18:57:40.543Z,5.77
2018-11-25T19:00:15.930Z,5.78
2018-11-25T19:02:45.250Z,5.87
2018-11-25T19:05:13.947Z,5.87
2018-11-25T19:07:42.551Z,5.87
2018-11-25T19:10:14.269Z,5.86
2018-11-25T19:12:44.472Z,5.86
2018-11-25T19:15:14.968Z,5.95
2018-11-25T19:17:48.281Z,6.07
2018-11-25T19:20:19.257Z,6.13
2018-11-25T19:22:48.661Z,6.17
2018-11-25T19:25:19.107Z,6.18
2018-11-25T19:27:48.644Z,6.17
2018-11-25T19:30:25.933Z,6.20
2018-11-25T19:32:49.960Z,6.21
2018-11-25T19:35:21.306Z,6.19
2018-11-25T19:37:51.856Z,6.17
2018-11-25T19:40:26.613Z,6.21
2018-11-25T19:42:57.039Z,6.30
2018-11-25T19:45:28.792Z,6.31
2018-11-25T19:47:59.910Z,6.32
2018-11-25T19:50:31.447Z,6.34
2018-11-25T19:53:01.018Z,6.31
2018-11-25T19:55:31.082Z,6.35
2018-11-25T19:58:01.622Z,6.32
2018-11-25T20:00:30.824Z,6.29
2018-11-25T20:03:00.453Z,6.35
2018-11-25T20:05:29.374Z,6.41
2018-11-25T20:07:58.463Z,6.53
2018-11-25T20:10:27.385Z,6.69
2018-11-25T20:12:58.536Z,6.84
2018-11-25T20:15:27.231Z,6.92
2018-11-25T20:17:56.139Z,7.02
2018-11-25T20:20:27.165Z,7.02
2018-11-25T20:22:56.272Z,7.10
2018-11-25T20:25:24.864Z,7.12
2018-11-25T20:27:57.019Z,7.16
2018-11-25T20:30:29.315Z,7.15
2018-11-25T20:33:03.220Z,7.10
2018-11-25T20:35:31.810Z,7.00
2018-11-25T20:38:05.716Z,6.97
2018-11-25T20:40:34.409Z,6.97
2018-11-25T20:43:03.079Z,6.97
2018-11-25T20:45:39.017Z,7.00
2018-11-25T20:48:05.683Z,7.01
2018-11-25T20:50:34.264Z,7.02
2018-11-25T20:53:08.254Z,6.97
2018-11-25T20:55:37.543Z,6.99
2018-11-25T20:58:07.946Z,6.96
2018-11-25T21:00:36.629Z,6.95
2018-11-25T21:03:06.039Z,6.96
2018-11-25T21:05:34.627Z,6.94
2018-11-25T21:08:03.220Z,6.83
2018-11-25T21:10:31.805Z,6.88
2018-11-25T21:13:00.341Z,6.85
2018-11-25T21:15:28.855Z,6.74
2018-11-25T21:17:57.394Z,6.70
2018-11-25T21:20:26.571Z,6.60
2018-11-25T21:22:55.095Z,6.49
2018-11-25T21:25:24.010Z,6.45
2018-11-25T21:27:52.598Z,6.48
2018-11-25T21:30:24.236Z,6.52
2018-11-25T21:32:55.930Z,6.49
2018-11-25T21:35:24.480Z,6.48
2018-11-25T21:37:53.135Z,6.45
2018-11-25T21:40:23.611Z,6.43
2018-11-25T21:42:54.632Z,6.36
2018-11-25T21:45:23.325Z,6.25
2018-11-25T21:47:51.921Z,6.12
2018-11-25T21:50:25.495Z,6.05
2018-11-25T21:52:54.194Z,6.02
2018-11-25T21:55:22.882Z,6.02
2018-11-25T21:57:51.481Z,6.01
2018-11-25T22:00:21.558Z,5.94
2018-11-25T22:02:50.388Z,5.77
2018-11-25T22:05:20.081Z,5.72
2018-11-25T22:07:48.020Z,5.67
2018-11-25T22:10:18.419Z,5.56
2018-11-25T22:12:47.925Z,5.52
2018-11-25T22:15:23.225Z,5.48
2018-11-25T22:17:52.129Z,5.39
2018-11-25T22:20:20.698Z,5.26
2018-11-25T22:22:49.326Z,5.13
2018-11-25T22:25:19.249Z,4.95
2018-11-25T22:27:48.198Z,4.86
2018-11-25T22:30:20.663Z,4.82
2018-11-25T22:32:49.279Z,4.82
2018-11-25T22:35:19.381Z,4.67
2018-11-25T22:37:48.038Z,4.52
2018-11-25T22:40:17.732Z,4.51
2018-11-25T22:42:48.211Z,4.56
2018-11-25T22:45:19.737Z,4.62
2018-11-25T22:47:48.275Z,4.53
2018-11-25T22:50:20.771Z,4.50
2018-11-25T22:52:49.535Z,4.44
2018-11-25T22:55:21.899Z,4.49
2018-11-25T22:57:50.613Z,4.51
2018-11-25T23:00:28.578Z,4.44
2018-11-25T23:02:58.479Z,4.45
2018-11-25T23:05:38.232Z,4.36
2018-11-25T23:08:06.835Z,4.26
2018-11-25T23:10:35.496Z,4.38
2018-11-25T23:13:04.152Z,4.41
2018-11-25T23:15:32.741Z,4.42
2018-11-25T23:18:01.785Z,4.44
2018-11-25T23:20:30.541Z,4.39
2018-11-25T23:22:59.154Z,4.34
2018-11-25T23:25:27.780Z,4.36
2018-11-25T23:27:56.401Z,4.30
2018-11-25T23:30:24.938Z,4.29
2018-11-25T23:32:53.614Z,4.29
2018-11-25T23:35:23.818Z,4.29
2018-11-25T23:37:52.369Z,4.19
2018-11-25T23:40:21.008Z,4.09
2018-11-25T23:42:49.696Z,4.08
2018-11-25T23:45:18.279Z,4.01
2018-11-25T23:47:47.208Z,3.85
2018-11-25T23:50:16.241Z,3.70
2018-11-25T23:52:46.266Z,3.68
2018-11-25T23:55:15.349Z,3.54
2018-11-25T23:57:43.980Z,3.48
